sensor_id;sensor_type;location;lat;lon;timestamp;P1;durP1;ratioP1;P2;durP2;ratioP2
40995;SDS011;26723;57.478;12.066;2023-08-20T00:00:52;2.10;;;2.00;;
40995;SDS011;26723;57.478;12.066;2023-08-20T00:04:01;1.80;;;1.70;;
40995;SDS011;26723;57.478;12.066;2023-08-20T00:07:12;1.55;;;1.42;;
40995;SDS011;26723;57.478;12.066;2023-08-20T00:10:23;1.38;;;1.30;;
40995;SDS011;26723;57.478;12.066;2023-08-20T00:13:31;5.70;;;2.17;;
40995;SDS011;26723;57.478;12.066;2023-08-20T00:16:40;1.88;;;1.77;;
40995;SDS011;26723;57.478;12.066;2023-08-20T00:19:49;1.70;;;1.60;;
40995;SDS011;26723;57.478;12.066;2023-08-20T00:23:01;2.85;;;2.17;;
40995;SDS011;26723;57.478;12.066;2023-08-20T00:26:10;1.90;;;1.80;;
40995;SDS011;26723;57.478;12.066;2023-08-20T00:29:19;1.83;;;1.73;;
40995;SDS011;26723;57.478;12.066;2023-08-20T00:32:28;1.85;;;1.75;;
40995;SDS011;26723;57.478;12.066;2023-08-20T00:35:36;1.63;;;1.52;;
40995;SDS011;26723;57.478;12.066;2023-08-20T00:38:46;1.90;;;1.80;;
40995;SDS011;26723;57.478;12.066;2023-08-20T00:41:55;2.25;;;1.88;;
40995;SDS011;26723;57.478;12.066;2023-08-20T00:45:03;1.80;;;1.70;;
40995;SDS011;26723;57.478;12.066;2023-08-20T00:48:13;2.80;;;1.60;;
40995;SDS011;26723;57.478;12.066;2023-08-20T00:51:22;2.08;;;1.88;;
40995;SDS011;26723;57.478;12.066;2023-08-20T00:54:33;3.53;;;2.22;;
40995;SDS011;26723;57.478;12.066;2023-08-20T00:57:42;2.13;;;1.92;;
40995;SDS011;26723;57.478;12.066;2023-08-20T01:00:51;2.50;;;2.03;;
40995;SDS011;26723;57.478;12.066;2023-08-20T01:04:00;2.13;;;1.92;;
40995;SDS011;26723;57.478;12.066;2023-08-20T01:07:11;2.90;;;2.53;;
40995;SDS011;26723;57.478;12.066;2023-08-20T01:10:34;2.33;;;1.95;;
40995;SDS011;26723;57.478;12.066;2023-08-20T01:13:48;3.90;;;2.40;;
40995;SDS011;26723;57.478;12.066;2023-08-20T01:16:57;1.90;;;1.80;;
40995;SDS011;26723;57.478;12.066;2023-08-20T01:20:06;1.90;;;1.80;;
40995;SDS011;26723;57.478;12.066;2023-08-20T01:23:36;1.90;;;1.80;;
40995;SDS011;26723;57.478;12.066;2023-08-20T01:27:15;1.58;;;1.48;;
40995;SDS011;26723;57.478;12.066;2023-08-20T01:30:37;1.60;;;1.50;;
40995;SDS011;26723;57.478;12.066;2023-08-20T01:33:46;1.85;;;1.60;;
40995;SDS011;26723;57.478;12.066;2023-08-20T01:36:55;1.70;;;1.60;;
40995;SDS011;26723;57.478;12.066;2023-08-20T01:40:04;1.67;;;1.58;;
40995;SDS011;26723;57.478;12.066;2023-08-20T01:43:14;1.15;;;1.10;;
40995;SDS011;26723;57.478;12.066;2023-08-20T01:46:24;1.20;;;1.15;;
40995;SDS011;26723;57.478;12.066;2023-08-20T01:49:33;2.22;;;1.35;;
40995;SDS011;26723;57.478;12.066;2023-08-20T01:52:41;1.23;;;1.20;;
40995;SDS011;26723;57.478;12.066;2023-08-20T01:55:50;1.40;;;1.33;;
40995;SDS011;26723;57.478;12.066;2023-08-20T01:58:59;1.30;;;1.20;;
40995;SDS011;26723;57.478;12.066;2023-08-20T02:02:10;1.58;;;1.48;;
40995;SDS011;26723;57.478;12.066;2023-08-20T02:05:18;1.42;;;1.33;;
40995;SDS011;26723;57.478;12.066;2023-08-20T02:08:27;1.50;;;1.40;;
40995;SDS011;26723;57.478;12.066;2023-08-20T02:11:35;1.20;;;1.20;;
40995;SDS011;26723;57.478;12.066;2023-08-20T02:14:44;1.52;;;1.42;;
40995;SDS011;26723;57.478;12.066;2023-08-20T02:17:56;1.52;;;1.42;;
40995;SDS011;26723;57.478;12.066;2023-08-20T02:21:04;0.98;;;0.98;;
40995;SDS011;26723;57.478;12.066;2023-08-20T02:24:13;1.00;;;1.00;;
40995;SDS011;26723;57.478;12.066;2023-08-20T02:27:22;1.50;;;1.17;;
40995;SDS011;26723;57.478;12.066;2023-08-20T02:30:31;1.00;;;1.00;;
40995;SDS011;26723;57.478;12.066;2023-08-20T02:33:41;0.98;;;0.98;;
40995;SDS011;26723;57.478;12.066;2023-08-20T02:36:52;0.98;;;0.98;;
40995;SDS011;26723;57.478;12.066;2023-08-20T02:40:01;1.08;;;1.08;;
40995;SDS011;26723;57.478;12.066;2023-08-20T02:43:12;1.10;;;1.10;;
40995;SDS011;26723;57.478;12.066;2023-08-20T02:46:21;0.88;;;0.88;;
40995;SDS011;26723;57.478;12.066;2023-08-20T02:49:31;0.93;;;0.93;;
40995;SDS011;26723;57.478;12.066;2023-08-20T02:52:40;0.70;;;0.70;;
40995;SDS011;26723;57.478;12.066;2023-08-20T02:55:49;1.10;;;1.10;;
40995;SDS011;26723;57.478;12.066;2023-08-20T02:58:58;0.80;;;0.80;;
40995;SDS011;26723;57.478;12.066;2023-08-20T03:02:06;0.80;;;0.80;;
40995;SDS011;26723;57.478;12.066;2023-08-20T03:05:16;0.93;;;0.93;;
40995;SDS011;26723;57.478;12.066;2023-08-20T03:08:25;0.90;;;0.90;;
40995;SDS011;26723;57.478;12.066;2023-08-20T03:11:34;0.60;;;0.60;;
40995;SDS011;26723;57.478;12.066;2023-08-20T03:14:43;0.95;;;0.95;;
40995;SDS011;26723;57.478;12.066;2023-08-20T03:17:51;0.85;;;0.85;;
40995;SDS011;26723;57.478;12.066;2023-08-20T03:21:01;1.20;;;1.10;;
40995;SDS011;26723;57.478;12.066;2023-08-20T03:24:10;1.10;;;1.10;;
40995;SDS011;26723;57.478;12.066;2023-08-20T03:27:19;2.38;;;1.27;;
40995;SDS011;26723;57.478;12.066;2023-08-20T03:30:28;1.75;;;1.30;;
40995;SDS011;26723;57.478;12.066;2023-08-20T03:33:37;1.27;;;1.17;;
40995;SDS011;26723;57.478;12.066;2023-08-20T03:36:48;0.90;;;0.90;;
40995;SDS011;26723;57.478;12.066;2023-08-20T03:39:56;1.40;;;1.40;;
40995;SDS011;26723;57.478;12.066;2023-08-20T03:43:05;1.45;;;1.35;;
40995;SDS011;26723;57.478;12.066;2023-08-20T03:46:13;1.20;;;1.20;;
40995;SDS011;26723;57.478;12.066;2023-08-20T03:49:23;1.15;;;1.15;;
40995;SDS011;26723;57.478;12.066;2023-08-20T03:52:33;1.48;;;1.38;;
40995;SDS011;26723;57.478;12.066;2023-08-20T03:55:46;1.13;;;1.13;;
40995;SDS011;26723;57.478;12.066;2023-08-20T03:58:55;0.93;;;0.93;;
40995;SDS011;26723;57.478;12.066;2023-08-20T04:02:04;2.90;;;1.52;;
40995;SDS011;26723;57.478;12.066;2023-08-20T04:05:13;1.20;;;1.10;;
40995;SDS011;26723;57.478;12.066;2023-08-20T04:08:23;1.17;;;1.08;;
40995;SDS011;26723;57.478;12.066;2023-08-20T04:11:31;3.28;;;1.20;;
40995;SDS011;26723;57.478;12.066;2023-08-20T04:14:40;1.48;;;1.40;;
40995;SDS011;26723;57.478;12.066;2023-08-20T04:17:49;1.70;;;1.58;;
40995;SDS011;26723;57.478;12.066;2023-08-20T04:20:57;1.35;;;1.33;;
40995;SDS011;26723;57.478;12.066;2023-08-20T04:24:07;1.30;;;1.10;;
40995;SDS011;26723;57.478;12.066;2023-08-20T04:27:16;0.98;;;0.95;;
40995;SDS011;26723;57.478;12.066;2023-08-20T04:30:24;1.27;;;1.17;;
40995;SDS011;26723;57.478;12.066;2023-08-20T04:33:33;1.20;;;1.13;;
40995;SDS011;26723;57.478;12.066;2023-08-20T04:36:42;1.30;;;1.20;;
40995;SDS011;26723;57.478;12.066;2023-08-20T04:39:52;1.48;;;1.42;;
40995;SDS011;26723;57.478;12.066;2023-08-20T04:43:02;1.13;;;1.02;;
40995;SDS011;26723;57.478;12.066;2023-08-20T04:46:10;1.30;;;1.30;;
40995;SDS011;26723;57.478;12.066;2023-08-20T04:49:19;1.95;;;1.77;;
40995;SDS011;26723;57.478;12.066;2023-08-20T04:52:28;1.02;;;0.95;;
40995;SDS011;26723;57.478;12.066;2023-08-20T04:55:37;1.00;;;1.00;;
40995;SDS011;26723;57.478;12.066;2023-08-20T04:58:47;1.23;;;1.23;;
40995;SDS011;26723;57.478;12.066;2023-08-20T05:02:15;2.50;;;1.02;;
40995;SDS011;26723;57.478;12.066;2023-08-20T05:05:30;1.17;;;1.17;;
40995;SDS011;26723;57.478;12.066;2023-08-20T05:08:40;1.70;;;1.20;;
40995;SDS011;26723;57.478;12.066;2023-08-20T05:11:50;1.20;;;1.20;;
40995;SDS011;26723;57.478;12.066;2023-08-20T05:14:59;1.27;;;1.20;;
40995;SDS011;26723;57.478;12.066;2023-08-20T05:18:07;1.25;;;1.23;;
40995;SDS011;26723;57.478;12.066;2023-08-20T05:21:16;1.45;;;1.35;;
40995;SDS011;26723;57.478;12.066;2023-08-20T05:24:24;1.33;;;1.23;;
40995;SDS011;26723;57.478;12.066;2023-08-20T05:27:35;1.40;;;1.20;;
40995;SDS011;26723;57.478;12.066;2023-08-20T05:30:44;1.80;;;1.70;;
40995;SDS011;26723;57.478;12.066;2023-08-20T05:34:02;1.35;;;1.25;;
40995;SDS011;26723;57.478;12.066;2023-08-20T05:37:11;1.90;;;0.98;;
40995;SDS011;26723;57.478;12.066;2023-08-20T05:40:19;1.25;;;1.20;;
40995;SDS011;26723;57.478;12.066;2023-08-20T05:43:30;1.40;;;1.30;;
40995;SDS011;26723;57.478;12.066;2023-08-20T05:46:39;1.75;;;1.35;;
40995;SDS011;26723;57.478;12.066;2023-08-20T05:49:48;1.48;;;1.38;;
40995;SDS011;26723;57.478;12.066;2023-08-20T05:52:56;1.45;;;1.35;;
40995;SDS011;26723;57.478;12.066;2023-08-20T05:56:06;1.20;;;1.10;;
40995;SDS011;26723;57.478;12.066;2023-08-20T05:59:16;3.47;;;1.60;;
40995;SDS011;26723;57.478;12.066;2023-08-20T06:02:26;1.65;;;1.48;;
40995;SDS011;26723;57.478;12.066;2023-08-20T06:05:34;1.75;;;0.93;;
40995;SDS011;26723;57.478;12.066;2023-08-20T06:08:43;2.60;;;1.83;;
40995;SDS011;26723;57.478;12.066;2023-08-20T06:12:08;1.80;;;1.70;;
40995;SDS011;26723;57.478;12.066;2023-08-20T06:15:18;1.52;;;1.30;;
40995;SDS011;26723;57.478;12.066;2023-08-20T06:18:27;1.50;;;1.40;;
40995;SDS011;26723;57.478;12.066;2023-08-20T06:21:35;1.83;;;1.73;;
40995;SDS011;26723;57.478;12.066;2023-08-20T06:24:43;1.70;;;1.60;;
40995;SDS011;26723;57.478;12.066;2023-08-20T06:27:52;2.17;;;1.63;;
40995;SDS011;26723;57.478;12.066;2023-08-20T06:31:02;4.43;;;2.03;;
40995;SDS011;26723;57.478;12.066;2023-08-20T06:34:10;1.50;;;1.40;;
40995;SDS011;26723;57.478;12.066;2023-08-20T06:37:19;2.20;;;2.00;;
40995;SDS011;26723;57.478;12.066;2023-08-20T06:40:27;2.15;;;1.55;;
40995;SDS011;26723;57.478;12.066;2023-08-20T06:43:35;2.75;;;1.63;;
40995;SDS011;26723;57.478;12.066;2023-08-20T06:46:45;3.25;;;1.95;;
40995;SDS011;26723;57.478;12.066;2023-08-20T06:49:54;2.65;;;1.88;;
40995;SDS011;26723;57.478;12.066;2023-08-20T06:53:02;1.30;;;1.20;;
40995;SDS011;26723;57.478;12.066;2023-08-20T06:56:12;4.22;;;1.52;;
40995;SDS011;26723;57.478;12.066;2023-08-20T06:59:20;1.95;;;1.83;;
40995;SDS011;26723;57.478;12.066;2023-08-20T07:02:30;2.20;;;1.70;;
40995;SDS011;26723;57.478;12.066;2023-08-20T07:05:39;1.40;;;1.30;;
40995;SDS011;26723;57.478;12.066;2023-08-20T07:08:48;1.23;;;1.00;;
40995;SDS011;26723;57.478;12.066;2023-08-20T07:11:57;1.02;;;0.95;;
40995;SDS011;26723;57.478;12.066;2023-08-20T07:15:06;1.30;;;1.20;;
40995;SDS011;26723;57.478;12.066;2023-08-20T07:18:17;1.40;;;1.30;;
40995;SDS011;26723;57.478;12.066;2023-08-20T07:21:33;1.30;;;1.20;;
40995;SDS011;26723;57.478;12.066;2023-08-20T07:24:42;1.63;;;1.45;;
40995;SDS011;26723;57.478;12.066;2023-08-20T07:27:50;2.08;;;1.67;;
40995;SDS011;26723;57.478;12.066;2023-08-20T07:30:59;1.77;;;1.48;;
40995;SDS011;26723;57.478;12.066;2023-08-20T07:34:12;3.17;;;1.70;;
40995;SDS011;26723;57.478;12.066;2023-08-20T07:37:21;2.13;;;1.98;;
40995;SDS011;26723;57.478;12.066;2023-08-20T07:40:29;2.85;;;1.77;;
40995;SDS011;26723;57.478;12.066;2023-08-20T07:43:40;5.00;;;2.65;;
40995;SDS011;26723;57.478;12.066;2023-08-20T07:46:49;3.90;;;2.38;;
40995;SDS011;26723;57.478;12.066;2023-08-20T07:49:59;4.55;;;2.67;;
40995;SDS011;26723;57.478;12.066;2023-08-20T07:53:08;2.92;;;2.63;;
40995;SDS011;26723;57.478;12.066;2023-08-20T07:56:16;4.63;;;3.00;;
40995;SDS011;26723;57.478;12.066;2023-08-20T07:59:25;3.58;;;3.03;;
40995;SDS011;26723;57.478;12.066;2023-08-20T08:02:33;8.70;;;3.35;;
40995;SDS011;26723;57.478;12.066;2023-08-20T08:05:43;7.85;;;3.33;;
40995;SDS011;26723;57.478;12.066;2023-08-20T08:08:54;4.85;;;3.45;;
40995;SDS011;26723;57.478;12.066;2023-08-20T08:12:03;4.85;;;2.75;;
40995;SDS011;26723;57.478;12.066;2023-08-20T08:15:12;4.70;;;2.80;;
40995;SDS011;26723;57.478;12.066;2023-08-20T08:18:22;3.45;;;2.38;;
40995;SDS011;26723;57.478;12.066;2023-08-20T08:21:32;4.15;;;2.45;;
40995;SDS011;26723;57.478;12.066;2023-08-20T08:24:41;5.80;;;2.40;;
40995;SDS011;26723;57.478;12.066;2023-08-20T08:27:50;5.57;;;2.42;;
40995;SDS011;26723;57.478;12.066;2023-08-20T08:31:06;5.57;;;1.90;;
40995;SDS011;26723;57.478;12.066;2023-08-20T08:34:15;5.70;;;2.42;;
40995;SDS011;26723;57.478;12.066;2023-08-20T08:37:26;3.80;;;2.17;;
40995;SDS011;26723;57.478;12.066;2023-08-20T08:40:34;4.65;;;2.15;;
40995;SDS011;26723;57.478;12.066;2023-08-20T08:43:43;2.83;;;2.05;;
40995;SDS011;26723;57.478;12.066;2023-08-20T08:46:53;2.75;;;2.10;;
40995;SDS011;26723;57.478;12.066;2023-08-20T08:50:01;4.15;;;2.40;;
40995;SDS011;26723;57.478;12.066;2023-08-20T08:53:12;2.50;;;2.30;;
40995;SDS011;26723;57.478;12.066;2023-08-20T08:56:21;3.70;;;2.22;;
40995;SDS011;26723;57.478;12.066;2023-08-20T08:59:29;3.95;;;2.05;;
40995;SDS011;26723;57.478;12.066;2023-08-20T09:02:38;1.90;;;1.80;;
40995;SDS011;26723;57.478;12.066;2023-08-20T09:05:47;2.83;;;2.25;;
40995;SDS011;26723;57.478;12.066;2023-08-20T09:09:04;4.20;;;1.92;;
40995;SDS011;26723;57.478;12.066;2023-08-20T09:12:13;5.10;;;2.50;;
40995;SDS011;26723;57.478;12.066;2023-08-20T09:15:22;6.95;;;2.80;;
40995;SDS011;26723;57.478;12.066;2023-08-20T09:18:41;5.00;;;2.42;;
40995;SDS011;26723;57.478;12.066;2023-08-20T09:21:52;4.63;;;2.47;;
40995;SDS011;26723;57.478;12.066;2023-08-20T09:25:04;2.58;;;2.38;;
40995;SDS011;26723;57.478;12.066;2023-08-20T09:28:13;3.92;;;1.95;;
40995;SDS011;26723;57.478;12.066;2023-08-20T09:31:36;5.95;;;2.30;;
40995;SDS011;26723;57.478;12.066;2023-08-20T09:34:46;5.07;;;2.60;;
40995;SDS011;26723;57.478;12.066;2023-08-20T09:37:58;2.80;;;2.20;;
40995;SDS011;26723;57.478;12.066;2023-08-20T09:41:09;4.65;;;2.47;;
40995;SDS011;26723;57.478;12.066;2023-08-20T09:44:19;5.60;;;2.20;;
40995;SDS011;26723;57.478;12.066;2023-08-20T09:47:29;7.07;;;2.47;;
40995;SDS011;26723;57.478;12.066;2023-08-20T09:50:42;3.20;;;2.85;;
40995;SDS011;26723;57.478;12.066;2023-08-20T09:53:56;7.15;;;3.40;;
40995;SDS011;26723;57.478;12.066;2023-08-20T09:57:12;4.85;;;2.30;;
40995;SDS011;26723;57.478;12.066;2023-08-20T10:00:34;5.32;;;2.13;;
40995;SDS011;26723;57.478;12.066;2023-08-20T10:03:43;5.60;;;2.65;;
40995;SDS011;26723;57.478;12.066;2023-08-20T10:06:51;5.90;;;2.50;;
40995;SDS011;26723;57.478;12.066;2023-08-20T10:10:02;4.45;;;3.30;;
40995;SDS011;26723;57.478;12.066;2023-08-20T10:13:14;3.10;;;2.42;;
40995;SDS011;26723;57.478;12.066;2023-08-20T10:16:23;6.30;;;2.97;;
40995;SDS011;26723;57.478;12.066;2023-08-20T10:19:35;4.47;;;2.40;;
40995;SDS011;26723;57.478;12.066;2023-08-20T10:22:45;5.45;;;2.40;;
40995;SDS011;26723;57.478;12.066;2023-08-20T10:25:54;9.07;;;2.65;;
40995;SDS011;26723;57.478;12.066;2023-08-20T10:32:45;1.83;;;1.70;;
40995;SDS011;26723;57.478;12.066;2023-08-20T10:35:55;3.25;;;1.98;;
40995;SDS011;26723;57.478;12.066;2023-08-20T10:39:04;4.70;;;2.53;;
40995;SDS011;26723;57.478;12.066;2023-08-20T10:42:22;7.30;;;2.00;;
40995;SDS011;26723;57.478;12.066;2023-08-20T10:45:36;3.47;;;2.10;;
40995;SDS011;26723;57.478;12.066;2023-08-20T10:48:52;1.80;;;1.70;;
40995;SDS011;26723;57.478;12.066;2023-08-20T10:52:02;3.08;;;1.83;;
40995;SDS011;26723;57.478;12.066;2023-08-20T10:55:10;2.55;;;1.90;;
40995;SDS011;26723;57.478;12.066;2023-08-20T10:58:23;4.43;;;2.33;;
40995;SDS011;26723;57.478;12.066;2023-08-20T11:01:33;2.30;;;2.10;;
40995;SDS011;26723;57.478;12.066;2023-08-20T11:04:42;2.50;;;2.22;;
40995;SDS011;26723;57.478;12.066;2023-08-20T11:07:51;2.63;;;1.90;;
40995;SDS011;26723;57.478;12.066;2023-08-20T11:11:00;2.92;;;1.90;;
40995;SDS011;26723;57.478;12.066;2023-08-20T11:14:11;3.15;;;1.77;;
40995;SDS011;26723;57.478;12.066;2023-08-20T11:17:23;3.30;;;1.95;;
40995;SDS011;26723;57.478;12.066;2023-08-20T11:20:31;2.38;;;1.83;;
40995;SDS011;26723;57.478;12.066;2023-08-20T11:23:42;2.45;;;1.95;;
40995;SDS011;26723;57.478;12.066;2023-08-20T11:26:50;2.15;;;1.58;;
40995;SDS011;26723;57.478;12.066;2023-08-20T11:30:03;1.85;;;1.40;;
40995;SDS011;26723;57.478;12.066;2023-08-20T11:33:14;1.50;;;1.40;;
40995;SDS011;26723;57.478;12.066;2023-08-20T11:36:24;1.70;;;1.60;;
40995;SDS011;26723;57.478;12.066;2023-08-20T11:39:32;1.60;;;1.23;;
40995;SDS011;26723;57.478;12.066;2023-08-20T11:42:41;2.65;;;1.63;;
40995;SDS011;26723;57.478;12.066;2023-08-20T11:45:49;2.47;;;1.48;;
40995;SDS011;26723;57.478;12.066;2023-08-20T11:49:00;3.05;;;1.58;;
40995;SDS011;26723;57.478;12.066;2023-08-20T11:52:10;1.92;;;1.63;;
40995;SDS011;26723;57.478;12.066;2023-08-20T11:55:23;1.77;;;1.67;;
40995;SDS011;26723;57.478;12.066;2023-08-20T11:58:32;1.58;;;1.48;;
40995;SDS011;26723;57.478;12.066;2023-08-20T12:01:41;2.25;;;1.20;;
40995;SDS011;26723;57.478;12.066;2023-08-20T12:04:51;2.20;;;1.55;;
40995;SDS011;26723;57.478;12.066;2023-08-20T12:08:00;1.20;;;1.15;;
40995;SDS011;26723;57.478;12.066;2023-08-20T12:11:09;2.35;;;1.45;;
40995;SDS011;26723;57.478;12.066;2023-08-20T12:14:18;1.10;;;1.10;;
40995;SDS011;26723;57.478;12.066;2023-08-20T12:17:27;1.30;;;1.17;;
40995;SDS011;26723;57.478;12.066;2023-08-20T12:20:37;1.40;;;1.30;;
40995;SDS011;26723;57.478;12.066;2023-08-20T12:23:45;1.05;;;1.05;;
40995;SDS011;26723;57.478;12.066;2023-08-20T12:26:53;1.15;;;1.13;;
40995;SDS011;26723;57.478;12.066;2023-08-20T12:30:02;2.55;;;1.50;;
40995;SDS011;26723;57.478;12.066;2023-08-20T12:33:11;2.00;;;1.23;;
40995;SDS011;26723;57.478;12.066;2023-08-20T12:36:22;2.35;;;1.10;;
40995;SDS011;26723;57.478;12.066;2023-08-20T12:39:30;2.75;;;1.30;;
40995;SDS011;26723;57.478;12.066;2023-08-20T12:42:39;1.10;;;1.10;;
40995;SDS011;26723;57.478;12.066;2023-08-20T12:45:50;1.50;;;1.10;;
40995;SDS011;26723;57.478;12.066;2023-08-20T12:48:58;1.00;;;1.00;;
40995;SDS011;26723;57.478;12.066;2023-08-20T12:52:08;0.70;;;0.70;;
40995;SDS011;26723;57.478;12.066;2023-08-20T12:55:17;1.33;;;1.20;;
40995;SDS011;26723;57.478;12.066;2023-08-20T12:58:25;1.30;;;1.30;;
40995;SDS011;26723;57.478;12.066;2023-08-20T13:01:34;1.00;;;0.90;;
40995;SDS011;26723;57.478;12.066;2023-08-20T13:04:43;0.88;;;0.88;;
40995;SDS011;26723;57.478;12.066;2023-08-20T13:07:54;0.85;;;0.85;;
40995;SDS011;26723;57.478;12.066;2023-08-20T13:11:04;2.15;;;1.50;;
40995;SDS011;26723;57.478;12.066;2023-08-20T13:14:15;0.88;;;0.80;;
40995;SDS011;26723;57.478;12.066;2023-08-20T13:17:24;1.00;;;0.77;;
40995;SDS011;26723;57.478;12.066;2023-08-20T13:20:33;1.45;;;0.88;;
40995;SDS011;26723;57.478;12.066;2023-08-20T13:23:43;3.13;;;0.80;;
40995;SDS011;26723;57.478;12.066;2023-08-20T13:26:52;1.02;;;0.80;;
40995;SDS011;26723;57.478;12.066;2023-08-20T13:30:00;1.40;;;1.02;;
40995;SDS011;26723;57.478;12.066;2023-08-20T13:33:10;0.60;;;0.60;;
40995;SDS011;26723;57.478;12.066;2023-08-20T13:36:18;1.40;;;1.10;;
40995;SDS011;26723;57.478;12.066;2023-08-20T13:39:28;0.80;;;0.70;;
40995;SDS011;26723;57.478;12.066;2023-08-20T13:42:36;1.13;;;0.73;;
40995;SDS011;26723;57.478;12.066;2023-08-20T13:45:45;1.02;;;0.65;;
40995;SDS011;26723;57.478;12.066;2023-08-20T13:48:53;1.98;;;0.88;;
40995;SDS011;26723;57.478;12.066;2023-08-20T13:52:02;0.75;;;0.75;;
40995;SDS011;26723;57.478;12.066;2023-08-20T13:55:12;0.95;;;0.95;;
40995;SDS011;26723;57.478;12.066;2023-08-20T13:58:21;0.85;;;0.85;;
40995;SDS011;26723;57.478;12.066;2023-08-20T14:01:30;2.38;;;1.25;;
40995;SDS011;26723;57.478;12.066;2023-08-20T14:04:38;1.75;;;0.82;;
40995;SDS011;26723;57.478;12.066;2023-08-20T14:07:47;1.23;;;1.00;;
40995;SDS011;26723;57.478;12.066;2023-08-20T14:10:57;0.90;;;0.90;;
40995;SDS011;26723;57.478;12.066;2023-08-20T14:14:05;0.80;;;0.80;;
40995;SDS011;26723;57.478;12.066;2023-08-20T14:17:13;0.98;;;0.90;;
40995;SDS011;26723;57.478;12.066;2023-08-20T14:20:23;0.80;;;0.80;;
40995;SDS011;26723;57.478;12.066;2023-08-20T14:23:32;1.35;;;1.00;;
40995;SDS011;26723;57.478;12.066;2023-08-20T14:26:43;0.80;;;0.70;;
40995;SDS011;26723;57.478;12.066;2023-08-20T14:29:51;1.30;;;0.98;;
40995;SDS011;26723;57.478;12.066;2023-08-20T14:33:00;1.98;;;1.00;;
40995;SDS011;26723;57.478;12.066;2023-08-20T14:36:09;1.55;;;1.30;;
40995;SDS011;26723;57.478;12.066;2023-08-20T14:39:17;1.95;;;1.23;;
40995;SDS011;26723;57.478;12.066;2023-08-20T14:42:27;2.40;;;1.75;;
40995;SDS011;26723;57.478;12.066;2023-08-20T14:45:36;1.17;;;0.95;;
40995;SDS011;26723;57.478;12.066;2023-08-20T14:48:44;2.63;;;1.25;;
40995;SDS011;26723;57.478;12.066;2023-08-20T14:51:53;1.45;;;1.35;;
40995;SDS011;26723;57.478;12.066;2023-08-20T14:55:22;3.20;;;1.58;;
40995;SDS011;26723;57.478;12.066;2023-08-20T14:58:31;1.40;;;1.30;;
40995;SDS011;26723;57.478;12.066;2023-08-20T15:01:40;1.30;;;1.30;;
40995;SDS011;26723;57.478;12.066;2023-08-20T15:04:48;1.83;;;1.73;;
40995;SDS011;26723;57.478;12.066;2023-08-20T15:07:57;1.48;;;1.27;;
40995;SDS011;26723;57.478;12.066;2023-08-20T15:11:06;1.73;;;1.45;;
40995;SDS011;26723;57.478;12.066;2023-08-20T15:14:15;1.42;;;1.33;;
40995;SDS011;26723;57.478;12.066;2023-08-20T15:17:24;4.15;;;1.50;;
40995;SDS011;26723;57.478;12.066;2023-08-20T15:20:33;1.23;;;1.23;;
40995;SDS011;26723;57.478;12.066;2023-08-20T15:23:41;1.15;;;1.15;;
40995;SDS011;26723;57.478;12.066;2023-08-20T15:26:51;5.13;;;1.48;;
40995;SDS011;26723;57.478;12.066;2023-08-20T15:30:01;3.08;;;1.58;;
40995;SDS011;26723;57.478;12.066;2023-08-20T15:33:10;1.35;;;1.33;;
40995;SDS011;26723;57.478;12.066;2023-08-20T15:36:20;1.42;;;1.30;;
40995;SDS011;26723;57.478;12.066;2023-08-20T15:39:31;1.20;;;1.10;;
40995;SDS011;26723;57.478;12.066;2023-08-20T15:42:40;1.30;;;1.20;;
40995;SDS011;26723;57.478;12.066;2023-08-20T15:45:50;2.17;;;1.50;;
40995;SDS011;26723;57.478;12.066;2023-08-20T15:48:59;1.88;;;1.70;;
40995;SDS011;26723;57.478;12.066;2023-08-20T15:52:07;2.85;;;1.27;;
40995;SDS011;26723;57.478;12.066;2023-08-20T15:55:16;1.77;;;1.67;;
40995;SDS011;26723;57.478;12.066;2023-08-20T15:58:25;0.80;;;0.80;;
40995;SDS011;26723;57.478;12.066;2023-08-20T16:01:34;1.05;;;1.05;;
40995;SDS011;26723;57.478;12.066;2023-08-20T16:04:43;2.10;;;1.00;;
40995;SDS011;26723;57.478;12.066;2023-08-20T16:07:52;1.48;;;1.38;;
40995;SDS011;26723;57.478;12.066;2023-08-20T16:11:01;1.25;;;1.23;;
40995;SDS011;26723;57.478;12.066;2023-08-20T16:14:10;2.50;;;1.17;;
40995;SDS011;26723;57.478;12.066;2023-08-20T16:17:20;1.10;;;1.10;;
40995;SDS011;26723;57.478;12.066;2023-08-20T16:20:29;1.88;;;1.50;;
40995;SDS011;26723;57.478;12.066;2023-08-20T16:23:39;3.85;;;1.63;;
40995;SDS011;26723;57.478;12.066;2023-08-20T16:26:48;2.08;;;1.23;;
40995;SDS011;26723;57.478;12.066;2023-08-20T16:29:57;1.45;;;1.33;;
40995;SDS011;26723;57.478;12.066;2023-08-20T16:33:07;1.67;;;1.45;;
40995;SDS011;26723;57.478;12.066;2023-08-20T16:36:17;1.02;;;1.02;;
40995;SDS011;26723;57.478;12.066;2023-08-20T16:39:25;1.63;;;1.40;;
40995;SDS011;26723;57.478;12.066;2023-08-20T16:42:34;2.75;;;1.10;;
40995;SDS011;26723;57.478;12.066;2023-08-20T16:45:42;2.17;;;1.40;;
40995;SDS011;26723;57.478;12.066;2023-08-20T16:48:52;3.30;;;1.50;;
40995;SDS011;26723;57.478;12.066;2023-08-20T16:52:01;2.15;;;1.70;;
40995;SDS011;26723;57.478;12.066;2023-08-20T16:55:10;1.42;;;1.23;;
40995;SDS011;26723;57.478;12.066;2023-08-20T16:58:18;3.78;;;1.60;;
40995;SDS011;26723;57.478;12.066;2023-08-20T17:01:29;1.55;;;1.08;;
40995;SDS011;26723;57.478;12.066;2023-08-20T17:04:40;2.33;;;1.23;;
40995;SDS011;26723;57.478;12.066;2023-08-20T17:07:48;1.70;;;1.60;;
40995;SDS011;26723;57.478;12.066;2023-08-20T17:11:03;1.48;;;1.38;;
40995;SDS011;26723;57.478;12.066;2023-08-20T17:14:13;1.42;;;1.42;;
40995;SDS011;26723;57.478;12.066;2023-08-20T17:17:26;1.85;;;1.27;;
40995;SDS011;26723;57.478;12.066;2023-08-20T17:20:37;1.83;;;1.23;;
40995;SDS011;26723;57.478;12.066;2023-08-20T17:23:46;1.40;;;1.30;;
40995;SDS011;26723;57.478;12.066;2023-08-20T17:26:54;1.00;;;1.00;;
40995;SDS011;26723;57.478;12.066;2023-08-20T17:30:03;1.40;;;1.30;;
40995;SDS011;26723;57.478;12.066;2023-08-20T17:33:18;1.38;;;1.30;;
40995;SDS011;26723;57.478;12.066;2023-08-20T17:36:28;1.55;;;1.25;;
40995;SDS011;26723;57.478;12.066;2023-08-20T17:39:36;2.00;;;1.17;;
40995;SDS011;26723;57.478;12.066;2023-08-20T17:42:45;1.25;;;1.17;;
40995;SDS011;26723;57.478;12.066;2023-08-20T17:45:53;2.15;;;1.30;;
40995;SDS011;26723;57.478;12.066;2023-08-20T17:49:01;1.42;;;1.40;;
40995;SDS011;26723;57.478;12.066;2023-08-20T17:52:11;2.80;;;1.73;;
40995;SDS011;26723;57.478;12.066;2023-08-20T17:55:20;2.58;;;1.23;;
40995;SDS011;26723;57.478;12.066;2023-08-20T17:58:28;3.17;;;1.40;;
40995;SDS011;26723;57.478;12.066;2023-08-20T18:01:37;1.30;;;1.27;;
40995;SDS011;26723;57.478;12.066;2023-08-20T18:04:45;3.25;;;1.38;;
40995;SDS011;26723;57.478;12.066;2023-08-20T18:07:59;2.67;;;1.20;;
40995;SDS011;26723;57.478;12.066;2023-08-20T18:11:07;4.03;;;1.42;;
40995;SDS011;26723;57.478;12.066;2023-08-20T18:14:16;1.83;;;1.40;;
40995;SDS011;26723;57.478;12.066;2023-08-20T18:17:24;2.55;;;1.67;;
40995;SDS011;26723;57.478;12.066;2023-08-20T18:20:34;1.67;;;1.58;;
40995;SDS011;26723;57.478;12.066;2023-08-20T18:23:44;6.53;;;2.33;;
40995;SDS011;26723;57.478;12.066;2023-08-20T18:26:52;1.98;;;1.40;;
40995;SDS011;26723;57.478;12.066;2023-08-20T18:30:01;2.22;;;1.42;;
40995;SDS011;26723;57.478;12.066;2023-08-20T18:33:10;1.63;;;1.52;;
40995;SDS011;26723;57.478;12.066;2023-08-20T18:36:19;1.38;;;1.27;;
40995;SDS011;26723;57.478;12.066;2023-08-20T18:39:32;1.65;;;1.55;;
40995;SDS011;26723;57.478;12.066;2023-08-20T18:42:41;2.80;;;1.65;;
40995;SDS011;26723;57.478;12.066;2023-08-20T18:45:50;1.95;;;1.77;;
40995;SDS011;26723;57.478;12.066;2023-08-20T18:48:58;1.98;;;1.50;;